createdAt,value
2018-05-27T00:01:42.614Z,11.77
2018-05-27T00:04:08.523Z,12.30
2018-05-27T00:06:34.422Z,10.73
2018-05-27T00:09:00.316Z,14.63
2018-05-27T00:11:26.209Z,11.23
2018-05-27T00:13:52.096Z,12.27
2018-05-27T00:16:17.964Z,12.33
2018-05-27T00:18:43.854Z,11.83
2018-05-27T00:21:09.705Z,12.77
2018-05-27T00:23:35.609Z,11.90
2018-05-27T00:26:01.463Z,12.40
2018-05-27T00:28:27.324Z,11.07
2018-05-27T00:30:53.189Z,11.10
2018-05-27T00:33:19.068Z,12.60
2018-05-27T00:35:44.981Z,11.50
2018-05-27T00:38:10.877Z,10.93
2018-05-27T00:40:36.762Z,10.80
2018-05-27T00:43:02.673Z,12.67
2018-05-27T00:45:28.565Z,12.43
2018-05-27T00:47:54.437Z,12.83
2018-05-27T00:50:20.313Z,11.50
2018-05-27T00:52:46.206Z,11.60
2018-05-27T00:55:12.074Z,11.30
2018-05-27T00:57:37.938Z,11.70
2018-05-27T01:00:03.841Z,11.90
2018-05-27T01:02:29.809Z,12.73
2018-05-27T01:04:55.700Z,12.13
2018-05-27T01:07:21.604Z,11.33
2018-05-27T01:09:47.468Z,12.43
2018-05-27T01:12:13.348Z,12.40
2018-05-27T01:14:39.241Z,10.97
2018-05-27T01:17:05.109Z,12.37
2018-05-27T01:19:30.993Z,11.03
2018-05-27T01:21:56.834Z,10.67
2018-05-27T01:24:22.752Z,10.60
2018-05-27T01:26:48.682Z,11.93
2018-05-27T01:29:14.557Z,11.70
2018-05-27T01:31:40.457Z,11.13
2018-05-27T01:34:06.329Z,13.20
2018-05-27T01:36:32.205Z,11.23
2018-05-27T01:38:58.066Z,11.27
2018-05-27T01:41:23.945Z,11.93
2018-05-27T01:43:49.814Z,12.80
2018-05-27T01:46:15.686Z,11.77
2018-05-27T01:48:41.550Z,13.50
2018-05-27T01:51:07.425Z,13.23
2018-05-27T01:53:33.314Z,14.67
2018-05-27T01:55:59.184Z,17.00
2018-05-27T01:58:25.082Z,14.07
2018-05-27T02:00:51.036Z,15.20
2018-05-27T02:03:17.014Z,15.30
2018-05-27T02:05:42.905Z,12.97
2018-05-27T02:08:08.811Z,13.17
2018-05-27T02:10:34.657Z,11.20
2018-05-27T02:13:00.529Z,11.40
2018-05-27T02:15:26.440Z,11.47
2018-05-27T02:17:52.325Z,11.77
2018-05-27T02:20:18.203Z,11.20
2018-05-27T02:22:44.105Z,10.93
2018-05-27T02:25:09.986Z,12.17
2018-05-27T02:27:35.877Z,11.40
2018-05-27T02:30:01.742Z,11.30
2018-05-27T02:32:27.594Z,11.57
2018-05-27T02:34:53.453Z,11.60
2018-05-27T02:37:19.360Z,11.80
2018-05-27T02:39:45.224Z,12.17
2018-05-27T02:42:11.103Z,11.10
2018-05-27T02:44:36.970Z,12.50
2018-05-27T02:47:02.860Z,10.77
2018-05-27T02:49:28.752Z,10.77
2018-05-27T02:51:54.614Z,11.53
2018-05-27T02:54:20.520Z,11.50
2018-05-27T02:56:46.378Z,11.73
2018-05-27T02:59:12.237Z,11.33
2018-05-27T03:01:38.117Z,12.70
2018-05-27T03:04:03.998Z,12.37
2018-05-27T03:06:29.917Z,11.57
2018-05-27T03:08:55.778Z,11.70
2018-05-27T03:11:21.664Z,11.53
2018-05-27T03:13:47.557Z,11.07
2018-05-27T03:16:13.459Z,11.30
2018-05-27T03:18:39.364Z,10.63
2018-05-27T03:21:06.080Z,9.60
2018-05-27T03:23:31.966Z,9.83
2018-05-27T03:25:57.885Z,11.20
2018-05-27T03:28:23.728Z,10.67
2018-05-27T03:30:49.617Z,12.00
2018-05-27T03:33:15.501Z,9.43
2018-05-27T03:35:41.385Z,14.40
2018-05-27T03:38:07.258Z,11.10
2018-05-27T03:40:33.146Z,10.67
2018-05-27T03:42:58.998Z,11.03
2018-05-27T03:45:24.865Z,11.87
2018-05-27T03:47:50.737Z,12.20
2018-05-27T03:50:16.649Z,14.27
2018-05-27T03:52:42.547Z,13.40
2018-05-27T03:55:08.421Z,13.07
2018-05-27T03:57:34.290Z,11.73
2018-05-27T04:00:00.162Z,10.70
2018-05-27T04:02:26.045Z,11.73
2018-05-27T04:05:04.176Z,12.17
2018-05-27T04:07:42.390Z,12.73
2018-05-27T04:10:08.294Z,11.40
2018-05-27T04:12:34.149Z,12.10
2018-05-27T04:15:00.037Z,13.67
2018-05-27T04:17:25.890Z,12.77
2018-05-27T04:19:51.803Z,13.20
2018-05-27T04:22:17.713Z,12.83
2018-05-27T04:24:43.557Z,11.90
2018-05-27T04:27:09.437Z,12.77
2018-05-27T04:29:35.306Z,12.30
2018-05-27T04:32:01.202Z,13.07
2018-05-27T04:34:27.092Z,14.17
2018-05-27T04:36:52.991Z,13.53
2018-05-27T04:39:18.849Z,11.20
2018-05-27T04:41:44.725Z,13.27
2018-05-27T04:44:10.628Z,13.93
2018-05-27T04:46:36.477Z,12.63
2018-05-27T04:49:02.337Z,13.37
2018-05-27T04:51:28.241Z,13.60
2018-05-27T04:53:54.104Z,14.13
2018-05-27T04:56:20.029Z,12.83
2018-05-27T04:58:45.922Z,13.20
2018-05-27T05:01:11.860Z,14.80
2018-05-27T05:03:37.777Z,13.80
2018-05-27T05:06:03.645Z,12.50
2018-05-27T05:08:29.531Z,13.77
2018-05-27T05:10:55.432Z,13.40
2018-05-27T05:13:21.295Z,13.93
2018-05-27T05:15:47.156Z,14.03
2018-05-27T05:18:13.025Z,13.50
2018-05-27T05:20:38.932Z,14.07
2018-05-27T05:23:04.797Z,14.27
2018-05-27T05:25:30.666Z,14.20
2018-05-27T05:27:56.565Z,14.57
2018-05-27T05:30:22.425Z,15.37
2018-05-27T05:32:48.281Z,14.40
2018-05-27T05:35:14.146Z,13.60
2018-05-27T05:37:40.037Z,14.70
2018-05-27T05:40:05.920Z,15.07
2018-05-27T05:42:31.788Z,15.07
2018-05-27T05:44:57.645Z,14.10
2018-05-27T05:47:23.519Z,15.77
2018-05-27T05:49:49.404Z,15.03
2018-05-27T05:52:15.328Z,14.97
2018-05-27T05:54:41.206Z,14.53
2018-05-27T05:57:07.094Z,14.70
2018-05-27T05:59:32.983Z,16.77
2018-05-27T06:01:58.894Z,14.23
2018-05-27T06:04:24.791Z,14.80
2018-05-27T06:06:50.670Z,13.00
2018-05-27T06:09:16.562Z,15.03
2018-05-27T06:11:42.467Z,14.70
2018-05-27T06:14:08.387Z,13.50
2018-05-27T06:16:34.275Z,14.00
2018-05-27T06:19:00.190Z,13.63
2018-05-27T06:21:26.100Z,13.50
2018-05-27T06:23:51.984Z,14.13
2018-05-27T06:26:17.886Z,13.03
2018-05-27T06:28:43.813Z,12.20
2018-05-27T06:31:09.682Z,11.87
2018-05-27T06:33:35.546Z,12.53
2018-05-27T06:36:01.406Z,12.67
2018-05-27T06:38:27.310Z,11.70
2018-05-27T06:40:53.182Z,12.77
2018-05-27T06:43:19.081Z,12.10
2018-05-27T06:45:44.956Z,12.20
2018-05-27T06:48:10.854Z,11.20
2018-05-27T06:50:36.851Z,11.73
2018-05-27T06:53:02.722Z,12.03
2018-05-27T06:55:28.641Z,10.33
2018-05-27T06:57:54.496Z,14.07
2018-05-27T07:00:20.365Z,12.23
2018-05-27T07:02:46.231Z,11.83
2018-05-27T07:05:12.109Z,9.90
2018-05-27T07:07:38.034Z,11.77
2018-05-27T07:10:04.002Z,10.20
2018-05-27T07:12:29.909Z,10.00
2018-05-27T07:14:55.816Z,11.27
2018-05-27T07:17:21.732Z,9.90
2018-05-27T07:19:47.631Z,10.50
2018-05-27T07:22:13.538Z,11.47
2018-05-27T07:24:39.404Z,9.97
2018-05-27T07:27:05.298Z,11.13
2018-05-27T07:29:31.190Z,9.80
2018-05-27T07:31:57.077Z,11.13
2018-05-27T07:34:23.531Z,10.23
2018-05-27T07:36:49.460Z,11.30
2018-05-27T07:39:15.394Z,9.83
2018-05-27T07:41:41.262Z,8.77
2018-05-27T07:44:08.777Z,9.30
2018-05-27T07:46:36.682Z,8.53
2018-05-27T07:49:03.223Z,8.87
2018-05-27T07:51:29.421Z,9.63
2018-05-27T07:53:55.781Z,9.43
2018-05-27T07:56:21.887Z,8.87
2018-05-27T07:58:47.849Z,9.77
2018-05-27T08:01:13.803Z,9.27
2018-05-27T08:03:39.649Z,9.93
2018-05-27T08:06:05.574Z,8.77
2018-05-27T08:08:31.462Z,8.77
2018-05-27T08:10:57.353Z,7.63
2018-05-27T08:13:23.226Z,7.23
2018-05-27T08:15:49.151Z,7.00
2018-05-27T08:18:15.030Z,8.63
2018-05-27T08:20:40.909Z,7.23
2018-05-27T08:23:06.811Z,8.03
2018-05-27T08:25:32.714Z,7.80
2018-05-27T08:27:58.623Z,7.23
2018-05-27T08:30:24.504Z,7.60
2018-05-27T08:32:50.422Z,8.40
2018-05-27T08:35:16.289Z,6.77
2018-05-27T08:37:42.161Z,7.13
2018-05-27T08:40:08.099Z,8.07
2018-05-27T08:42:33.983Z,7.70
2018-05-27T08:44:59.894Z,7.63
2018-05-27T08:47:25.801Z,7.10
2018-05-27T08:49:51.718Z,13.23
2018-05-27T08:52:17.569Z,7.60
2018-05-27T08:54:43.485Z,6.53
2018-05-27T08:57:09.378Z,7.30
2018-05-27T08:59:35.272Z,7.07
2018-05-27T09:02:01.170Z,6.83
2018-05-27T09:04:27.082Z,7.37
2018-05-27T09:06:52.966Z,6.93
2018-05-27T09:09:18.868Z,7.30
2018-05-27T09:11:44.792Z,7.70
2018-05-27T09:14:10.666Z,7.53
2018-05-27T09:16:36.552Z,7.10
2018-05-27T09:19:02.441Z,7.23
2018-05-27T09:21:28.323Z,7.40
2018-05-27T09:23:54.342Z,8.23
2018-05-27T09:26:20.354Z,7.53
2018-05-27T09:28:46.311Z,6.90
2018-05-27T09:31:12.250Z,7.90
2018-05-27T09:33:38.178Z,7.70
2018-05-27T09:36:04.171Z,10.83
2018-05-27T09:38:30.218Z,7.43
2018-05-27T09:40:56.175Z,7.10
2018-05-27T09:43:22.050Z,6.90
2018-05-27T09:45:47.941Z,6.00
2018-05-27T09:48:13.830Z,8.10
2018-05-27T09:50:39.787Z,7.13
2018-05-27T09:53:05.674Z,6.80
2018-05-27T09:55:31.562Z,8.57
2018-05-27T09:57:57.507Z,7.70
2018-05-27T10:00:23.350Z,6.90
2018-05-27T10:02:49.272Z,7.20
2018-05-27T10:05:15.114Z,7.60
2018-05-27T10:07:41.004Z,6.57
2018-05-27T10:10:06.934Z,14.07
2018-05-27T10:12:32.837Z,52.90
2018-05-27T10:14:58.714Z,6.93
2018-05-27T10:17:24.565Z,6.00
2018-05-27T10:19:50.447Z,5.73
2018-05-27T10:22:16.292Z,13.80
2018-05-27T10:24:42.223Z,6.53
2018-05-27T10:27:08.090Z,5.77
2018-05-27T10:29:33.961Z,7.33
2018-05-27T10:31:59.822Z,6.77
2018-05-27T10:34:25.683Z,7.00
2018-05-27T10:36:51.546Z,6.73
2018-05-27T10:39:17.458Z,9.23
2018-05-27T10:41:43.294Z,6.13
2018-05-27T10:44:09.190Z,7.20
2018-05-27T10:46:35.076Z,9.03
2018-05-27T10:49:00.942Z,6.47
2018-05-27T10:51:26.850Z,6.30
2018-05-27T10:53:52.716Z,6.67
2018-05-27T10:56:18.600Z,5.07
2018-05-27T10:58:44.455Z,5.00
2018-05-27T11:01:10.319Z,6.87
2018-05-27T11:03:36.193Z,5.20
2018-05-27T11:06:02.063Z,5.33
2018-05-27T11:08:28.081Z,6.13
2018-05-27T11:10:53.965Z,5.57
2018-05-27T11:13:19.830Z,5.53
2018-05-27T11:15:45.738Z,5.40
2018-05-27T11:18:11.619Z,5.53
2018-05-27T11:20:37.512Z,4.60
2018-05-27T11:23:03.417Z,5.30
2018-05-27T11:25:29.283Z,4.43
2018-05-27T11:27:55.144Z,4.20
2018-05-27T11:30:21.063Z,3.10
2018-05-27T11:32:46.933Z,4.10
2018-05-27T11:35:12.864Z,3.77
2018-05-27T11:37:38.744Z,3.93
2018-05-27T11:40:05.643Z,4.27
2018-05-27T11:42:31.596Z,4.70
2018-05-27T11:44:57.418Z,4.53
2018-05-27T11:47:23.285Z,4.60
2018-05-27T11:49:49.141Z,8.70
2018-05-27T11:52:15.034Z,4.70
2018-05-27T11:54:40.905Z,4.33
2018-05-27T11:57:06.801Z,4.50
2018-05-27T11:59:32.686Z,5.80
2018-05-27T12:01:58.597Z,4.57
2018-05-27T12:04:24.517Z,4.13
2018-05-27T12:06:50.369Z,4.60
2018-05-27T12:09:16.382Z,8.63
2018-05-27T12:11:42.198Z,4.83
2018-05-27T12:14:08.081Z,5.00
2018-05-27T12:16:33.957Z,4.80
2018-05-27T12:18:59.833Z,4.47
2018-05-27T12:21:25.696Z,4.20
2018-05-27T12:23:51.593Z,5.07
2018-05-27T12:26:17.476Z,5.07
2018-05-27T12:28:43.377Z,4.53
2018-05-27T12:31:09.258Z,8.23
2018-05-27T12:33:35.151Z,4.50
2018-05-27T12:36:01.179Z,4.40
2018-05-27T12:38:27.061Z,4.33
2018-05-27T12:40:52.922Z,4.83
2018-05-27T12:43:18.884Z,4.77
2018-05-27T12:45:44.769Z,4.00
2018-05-27T12:48:10.678Z,3.63
2018-05-27T12:50:36.634Z,5.27
2018-05-27T12:53:02.530Z,4.50
2018-05-27T12:55:28.417Z,3.90
2018-05-27T12:57:54.261Z,4.60
2018-05-27T13:00:20.141Z,3.73
2018-05-27T13:02:45.981Z,4.00
2018-05-27T13:05:11.826Z,4.40
2018-05-27T13:07:37.720Z,4.50
2018-05-27T13:10:03.832Z,5.50
2018-05-27T13:12:29.736Z,5.20
2018-05-27T13:14:55.620Z,4.50
2018-05-27T13:17:21.525Z,5.37
2018-05-27T13:19:47.394Z,4.60
2018-05-27T13:22:13.269Z,4.07
2018-05-27T13:24:39.124Z,4.40
2018-05-27T13:27:05.025Z,5.03
2018-05-27T13:29:30.934Z,4.80
2018-05-27T13:31:56.782Z,5.03
2018-05-27T13:34:22.708Z,4.43
2018-05-27T13:36:48.824Z,4.53
2018-05-27T13:39:14.713Z,4.40
2018-05-27T13:41:40.587Z,4.97
2018-05-27T13:44:06.484Z,4.90
2018-05-27T13:46:32.416Z,4.50
2018-05-27T13:48:58.801Z,4.67
2018-05-27T13:51:24.723Z,4.73
2018-05-27T13:53:50.618Z,5.00
2018-05-27T13:56:16.518Z,4.70
2018-05-27T13:58:42.410Z,5.03
2018-05-27T14:01:08.559Z,5.70
2018-05-27T14:03:34.417Z,4.43
2018-05-27T14:06:00.291Z,4.90
2018-05-27T14:08:26.171Z,4.50
2018-05-27T14:10:52.066Z,4.67
2018-05-27T14:13:18.057Z,4.73
2018-05-27T14:15:43.970Z,5.77
2018-05-27T14:18:09.852Z,5.13
2018-05-27T14:20:35.746Z,5.23
2018-05-27T14:23:01.665Z,4.90
2018-05-27T14:25:27.572Z,5.70
2018-05-27T14:27:53.477Z,5.27
2018-05-27T14:30:19.401Z,4.57
2018-05-27T14:32:45.300Z,5.23
2018-05-27T14:35:11.188Z,4.30
2018-05-27T14:37:37.082Z,4.20
2018-05-27T14:40:03.025Z,4.90
2018-05-27T14:42:28.937Z,5.23
2018-05-27T14:44:54.891Z,5.10
2018-05-27T14:47:20.727Z,4.60
2018-05-27T14:49:46.619Z,5.70
2018-05-27T14:52:12.510Z,5.50
2018-05-27T14:54:38.393Z,4.77
2018-05-27T14:57:04.336Z,5.73
2018-05-27T14:59:30.238Z,4.90
2018-05-27T15:01:57.891Z,4.60
2018-05-27T15:04:23.875Z,4.20
2018-05-27T15:06:49.753Z,4.53
2018-05-27T15:09:15.645Z,4.03
2018-05-27T15:11:41.513Z,7.00
2018-05-27T15:14:07.445Z,4.93
2018-05-27T15:16:33.388Z,4.87
2018-05-27T15:18:59.266Z,4.27
2018-05-27T15:21:25.238Z,5.40
2018-05-27T15:23:51.158Z,4.37
2018-05-27T15:26:17.053Z,6.03
2018-05-27T15:28:42.981Z,4.63
2018-05-27T15:31:08.850Z,4.30
2018-05-27T15:33:34.726Z,6.77
2018-05-27T15:36:00.717Z,4.47
2018-05-27T15:38:26.595Z,4.27
2018-05-27T15:40:52.504Z,4.80
2018-05-27T15:43:18.406Z,9.30
2018-05-27T15:45:44.330Z,9.47
2018-05-27T15:48:10.208Z,5.00
2018-05-27T15:50:36.091Z,4.47
2018-05-27T15:53:01.988Z,5.00
2018-05-27T15:55:27.969Z,4.77
2018-05-27T15:57:53.833Z,4.40
2018-05-27T16:00:19.758Z,5.20
2018-05-27T16:02:45.635Z,3.73
2018-05-27T16:05:11.577Z,4.43
2018-05-27T16:07:37.458Z,5.97
2018-05-27T16:10:03.370Z,4.30
2018-05-27T16:12:29.243Z,3.77
2018-05-27T16:14:55.122Z,3.47
2018-05-27T16:17:21.077Z,4.70
2018-05-27T16:19:46.974Z,4.50
2018-05-27T16:22:12.863Z,4.87
2018-05-27T16:24:38.740Z,4.47
2018-05-27T16:27:04.654Z,4.10
2018-05-27T16:29:30.513Z,4.80
2018-05-27T16:31:56.421Z,4.07
2018-05-27T16:34:22.356Z,5.00
2018-05-27T16:36:48.231Z,3.60
2018-05-27T16:39:14.168Z,3.97
2018-05-27T16:41:40.075Z,3.90
2018-05-27T16:44:05.946Z,5.40
2018-05-27T16:46:31.839Z,4.50
2018-05-27T16:48:57.732Z,7.37
2018-05-27T16:51:23.677Z,4.40
2018-05-27T16:53:49.558Z,4.30
2018-05-27T16:56:15.445Z,4.87
2018-05-27T16:58:41.356Z,9.83
2018-05-27T17:01:07.250Z,4.67
2018-05-27T17:03:33.661Z,4.33
2018-05-27T17:05:59.540Z,5.20
2018-05-27T17:08:25.480Z,4.20
2018-05-27T17:10:51.341Z,4.90
2018-05-27T17:13:17.293Z,3.80
2018-05-27T17:15:43.213Z,5.40
2018-05-27T17:18:09.131Z,4.50
2018-05-27T17:20:35.006Z,5.00
2018-05-27T17:23:00.888Z,4.37
2018-05-27T17:25:26.785Z,4.53
2018-05-27T17:27:52.799Z,5.87
2018-05-27T17:30:18.726Z,4.40
2018-05-27T17:32:44.614Z,4.90
2018-05-27T17:35:10.499Z,5.60
2018-05-27T17:37:36.455Z,4.47
2018-05-27T17:40:02.422Z,5.27
2018-05-27T17:42:28.338Z,6.10
2018-05-27T17:44:54.285Z,6.53
2018-05-27T17:47:20.199Z,4.60
2018-05-27T17:49:46.091Z,7.40
2018-05-27T17:52:11.967Z,6.70
2018-05-27T17:54:37.859Z,6.57
2018-05-27T17:57:03.743Z,5.13
2018-05-27T17:59:29.639Z,6.67
2018-05-27T18:01:55.509Z,6.47
2018-05-27T18:04:21.398Z,7.00
2018-05-27T18:06:47.297Z,6.07
2018-05-27T18:09:13.247Z,6.40
2018-05-27T18:11:39.157Z,7.13
2018-05-27T18:14:05.035Z,6.60
2018-05-27T18:16:30.969Z,7.50
2018-05-27T18:18:56.886Z,6.50
2018-05-27T18:21:22.805Z,7.67
2018-05-27T18:23:48.734Z,6.50
2018-05-27T18:26:14.592Z,10.27
2018-05-27T18:28:40.500Z,6.43
2018-05-27T18:31:06.390Z,5.97
2018-05-27T18:33:32.309Z,6.90
2018-05-27T18:35:58.221Z,6.53
2018-05-27T18:38:24.133Z,8.50
2018-05-27T18:40:50.006Z,7.10
2018-05-27T18:43:16.072Z,5.83
2018-05-27T18:45:41.963Z,7.00
2018-05-27T18:48:07.868Z,7.33
2018-05-27T18:50:34.007Z,7.50
2018-05-27T18:52:59.916Z,7.00
2018-05-27T18:55:25.819Z,6.40
2018-05-27T18:57:51.682Z,6.90
2018-05-27T19:00:17.608Z,8.40
2018-05-27T19:02:43.520Z,8.20
2018-05-27T19:05:09.448Z,8.00
2018-05-27T19:07:35.354Z,7.23
2018-05-27T19:10:01.324Z,7.40
2018-05-27T19:12:27.230Z,11.40
2018-05-27T19:14:53.131Z,7.27
2018-05-27T19:17:19.067Z,7.63
2018-05-27T19:19:44.902Z,8.60
2018-05-27T19:22:10.781Z,8.43
2018-05-27T19:24:36.683Z,7.77
2018-05-27T19:27:02.598Z,7.90
2018-05-27T19:29:28.525Z,7.67
2018-05-27T19:31:54.402Z,9.03
2018-05-27T19:34:20.283Z,8.50
2018-05-27T19:36:46.385Z,8.90
2018-05-27T19:39:12.286Z,7.80
2018-05-27T19:41:38.355Z,9.07
2018-05-27T19:44:04.252Z,9.47
2018-05-27T19:46:30.185Z,8.97
2018-05-27T19:48:56.121Z,9.90
2018-05-27T19:51:21.977Z,8.57
2018-05-27T19:53:47.934Z,9.53
2018-05-27T19:56:13.814Z,9.53
2018-05-27T19:58:39.722Z,9.13
2018-05-27T20:01:05.657Z,9.10
2018-05-27T20:03:31.596Z,9.33
2018-05-27T20:05:57.534Z,9.07
2018-05-27T20:08:23.491Z,8.07
2018-05-27T20:10:49.394Z,8.50
2018-05-27T20:13:15.349Z,9.50
2018-05-27T20:15:41.374Z,9.43
2018-05-27T20:18:07.281Z,10.20
2018-05-27T20:20:33.178Z,9.53
2018-05-27T20:22:59.133Z,9.97
2018-05-27T20:25:25.069Z,10.10
2018-05-27T20:27:51.151Z,8.97
2018-05-27T20:30:17.066Z,10.00
2018-05-27T20:32:42.978Z,12.00
2018-05-27T20:35:08.936Z,8.90
2018-05-27T20:37:34.940Z,10.33
2018-05-27T20:40:00.806Z,11.63
2018-05-27T20:42:26.721Z,10.33
2018-05-27T20:44:52.599Z,9.20
2018-05-27T20:47:18.663Z,8.80
2018-05-27T20:49:44.583Z,8.83
2018-05-27T20:52:10.534Z,10.23
2018-05-27T20:54:36.447Z,8.63
2018-05-27T20:57:02.382Z,9.80
2018-05-27T20:59:28.312Z,8.97
2018-05-27T21:01:54.181Z,11.83
2018-05-27T21:04:20.078Z,9.97
2018-05-27T21:06:46.573Z,10.17
2018-05-27T21:09:14.005Z,10.40
2018-05-27T21:11:39.936Z,11.20
2018-05-27T21:14:05.830Z,10.27
2018-05-27T21:16:31.731Z,10.40
2018-05-27T21:18:57.605Z,9.70
2018-05-27T21:21:23.601Z,10.60
2018-05-27T21:23:49.551Z,11.23
2018-05-27T21:26:15.436Z,11.60
2018-05-27T21:28:41.564Z,10.87
2018-05-27T21:31:07.477Z,12.03
2018-05-27T21:33:33.395Z,10.17
2018-05-27T21:35:59.352Z,10.67
2018-05-27T21:38:25.243Z,11.50
2018-05-27T21:40:51.159Z,11.27
2018-05-27T21:43:17.031Z,10.10
2018-05-27T21:45:42.957Z,11.20
2018-05-27T21:48:08.889Z,11.10
2018-05-27T21:50:34.866Z,11.93
2018-05-27T21:53:00.776Z,12.03
2018-05-27T21:55:26.669Z,10.97
2018-05-27T21:57:52.554Z,13.67
2018-05-27T22:00:18.453Z,15.63
2018-05-27T22:02:44.391Z,24.20
2018-05-27T22:05:10.313Z,20.73
2018-05-27T22:07:36.267Z,21.80
2018-05-27T22:10:02.225Z,21.27
2018-05-27T22:12:28.114Z,19.93
2018-05-27T22:14:54.026Z,17.30
2018-05-27T22:17:19.921Z,17.30
2018-05-27T22:19:45.870Z,17.67
2018-05-27T22:22:11.780Z,16.90
2018-05-27T22:24:37.681Z,14.73
2018-05-27T22:27:03.583Z,15.70
2018-05-27T22:29:29.460Z,15.40
2018-05-27T22:31:55.392Z,13.80
2018-05-27T22:34:21.327Z,14.13
2018-05-27T22:36:47.222Z,12.30
2018-05-27T22:39:13.138Z,11.97
2018-05-27T22:41:39.056Z,12.70
2018-05-27T22:44:04.993Z,15.90
2018-05-27T22:46:30.920Z,13.87
2018-05-27T22:48:56.903Z,13.60
2018-05-27T22:51:22.866Z,12.67
2018-05-27T22:53:48.739Z,12.80
2018-05-27T22:56:14.687Z,16.27
2018-05-27T22:58:40.562Z,12.70
2018-05-27T23:01:06.485Z,13.43
2018-05-27T23:03:32.417Z,13.00
2018-05-27T23:05:58.305Z,13.10
2018-05-27T23:08:24.204Z,15.30
2018-05-27T23:10:50.108Z,13.27
2018-05-27T23:13:16.019Z,13.63
2018-05-27T23:15:41.903Z,13.00
2018-05-27T23:18:07.811Z,14.83
2018-05-27T23:20:33.732Z,14.43
2018-05-27T23:22:59.617Z,14.83
2018-05-27T23:25:25.505Z,13.70
2018-05-27T23:27:51.372Z,13.30
2018-05-27T23:30:17.289Z,14.87
2018-05-27T23:32:43.217Z,13.73
2018-05-27T23:35:09.114Z,13.23
2018-05-27T23:37:35.021Z,12.60
2018-05-27T23:40:00.917Z,14.03
2018-05-27T23:42:26.812Z,15.20
2018-05-27T23:44:52.729Z,15.13
2018-05-27T23:47:18.629Z,15.20
2018-05-27T23:49:44.533Z,13.90
2018-05-27T23:52:10.398Z,13.53
2018-05-27T23:54:36.314Z,14.30
2018-05-27T23:57:02.219Z,12.17
2018-05-27T23:59:27.985Z,13.90
